sensor_id;sensor_type;location;lat;lon;timestamp;P1;durP1;ratioP1;P2;durP2;ratioP2
13891;SDS011;7016;48.172;8.058;2022-07-24T00:01:32;10.30;;;8.07;;
13891;SDS011;7016;48.172;8.058;2022-07-24T00:03:58;11.02;;;8.25;;
13891;SDS011;7016;48.172;8.058;2022-07-24T00:06:24;9.98;;;8.32;;
13891;SDS011;7016;48.172;8.058;2022-07-24T00:08:49;10.48;;;8.20;;
13891;SDS011;7016;48.172;8.058;2022-07-24T00:11:15;9.63;;;8.30;;
13891;SDS011;7016;48.172;8.058;2022-07-24T00:13:42;13.40;;;8.52;;
13891;SDS011;7016;48.172;8.058;2022-07-24T00:16:08;10.48;;;7.88;;
13891;SDS011;7016;48.172;8.058;2022-07-24T00:18:34;9.40;;;7.78;;
13891;SDS011;7016;48.172;8.058;2022-07-24T00:20:59;11.48;;;8.15;;
13891;SDS011;7016;48.172;8.058;2022-07-24T00:23:25;10.43;;;8.65;;
13891;SDS011;7016;48.172;8.058;2022-07-24T00:25:52;8.38;;;7.43;;
13891;SDS011;7016;48.172;8.058;2022-07-24T00:28:18;12.60;;;9.05;;
13891;SDS011;7016;48.172;8.058;2022-07-24T00:30:45;10.23;;;8.70;;
13891;SDS011;7016;48.172;8.058;2022-07-24T00:33:10;10.48;;;7.97;;
13891;SDS011;7016;48.172;8.058;2022-07-24T00:35:36;8.93;;;7.78;;
13891;SDS011;7016;48.172;8.058;2022-07-24T00:38:02;11.95;;;8.07;;
13891;SDS011;7016;48.172;8.058;2022-07-24T00:40:29;9.75;;;7.60;;
13891;SDS011;7016;48.172;8.058;2022-07-24T00:42:55;10.80;;;8.23;;
13891;SDS011;7016;48.172;8.058;2022-07-24T00:45:22;9.73;;;7.88;;
13891;SDS011;7016;48.172;8.058;2022-07-24T00:47:49;10.35;;;7.70;;
13891;SDS011;7016;48.172;8.058;2022-07-24T00:50:15;9.00;;;8.10;;
13891;SDS011;7016;48.172;8.058;2022-07-24T00:52:42;10.98;;;8.30;;
13891;SDS011;7016;48.172;8.058;2022-07-24T00:55:09;12.38;;;8.70;;
13891;SDS011;7016;48.172;8.058;2022-07-24T00:57:36;16.77;;;8.65;;
13891;SDS011;7016;48.172;8.058;2022-07-24T01:00:06;9.82;;;8.50;;
13891;SDS011;7016;48.172;8.058;2022-07-24T01:02:33;13.27;;;7.75;;
13891;SDS011;7016;48.172;8.058;2022-07-24T01:04:59;12.63;;;8.38;;
13891;SDS011;7016;48.172;8.058;2022-07-24T01:07:25;12.38;;;8.60;;
13891;SDS011;7016;48.172;8.058;2022-07-24T01:09:51;13.52;;;8.93;;
13891;SDS011;7016;48.172;8.058;2022-07-24T01:12:17;13.00;;;9.10;;
13891;SDS011;7016;48.172;8.058;2022-07-24T01:14:43;11.80;;;8.45;;
13891;SDS011;7016;48.172;8.058;2022-07-24T01:17:09;12.27;;;8.95;;
13891;SDS011;7016;48.172;8.058;2022-07-24T01:19:36;11.05;;;8.68;;
13891;SDS011;7016;48.172;8.058;2022-07-24T01:22:01;12.43;;;8.57;;
13891;SDS011;7016;48.172;8.058;2022-07-24T01:24:27;10.60;;;8.30;;
13891;SDS011;7016;48.172;8.058;2022-07-24T01:26:53;9.77;;;8.77;;
13891;SDS011;7016;48.172;8.058;2022-07-24T01:29:19;12.23;;;8.77;;
13891;SDS011;7016;48.172;8.058;2022-07-24T01:31:45;11.48;;;9.23;;
13891;SDS011;7016;48.172;8.058;2022-07-24T01:34:11;11.38;;;8.90;;
13891;SDS011;7016;48.172;8.058;2022-07-24T01:36:40;14.57;;;8.82;;
13891;SDS011;7016;48.172;8.058;2022-07-24T01:39:06;11.93;;;8.63;;
13891;SDS011;7016;48.172;8.058;2022-07-24T01:41:32;13.80;;;8.65;;
13891;SDS011;7016;48.172;8.058;2022-07-24T01:43:57;11.10;;;8.65;;
13891;SDS011;7016;48.172;8.058;2022-07-24T01:46:23;11.88;;;8.13;;
13891;SDS011;7016;48.172;8.058;2022-07-24T01:48:49;9.23;;;8.27;;
13891;SDS011;7016;48.172;8.058;2022-07-24T01:51:15;12.20;;;8.50;;
13891;SDS011;7016;48.172;8.058;2022-07-24T01:53:41;13.00;;;9.02;;
13891;SDS011;7016;48.172;8.058;2022-07-24T01:56:06;10.38;;;8.60;;
13891;SDS011;7016;48.172;8.058;2022-07-24T01:58:32;11.32;;;9.25;;
13891;SDS011;7016;48.172;8.058;2022-07-24T02:00:58;10.25;;;9.02;;
13891;SDS011;7016;48.172;8.058;2022-07-24T02:03:23;10.70;;;8.60;;
13891;SDS011;7016;48.172;8.058;2022-07-24T02:05:49;10.65;;;8.40;;
13891;SDS011;7016;48.172;8.058;2022-07-24T02:08:15;11.38;;;7.78;;
13891;SDS011;7016;48.172;8.058;2022-07-24T02:10:41;10.35;;;7.93;;
13891;SDS011;7016;48.172;8.058;2022-07-24T02:13:07;12.38;;;8.65;;
13891;SDS011;7016;48.172;8.058;2022-07-24T02:15:33;12.32;;;8.77;;
13891;SDS011;7016;48.172;8.058;2022-07-24T02:17:59;12.55;;;9.43;;
13891;SDS011;7016;48.172;8.058;2022-07-24T02:20:26;12.75;;;8.52;;
13891;SDS011;7016;48.172;8.058;2022-07-24T02:22:53;10.70;;;7.97;;
13891;SDS011;7016;48.172;8.058;2022-07-24T02:25:19;10.60;;;8.38;;
13891;SDS011;7016;48.172;8.058;2022-07-24T02:27:45;11.25;;;8.60;;
13891;SDS011;7016;48.172;8.058;2022-07-24T02:30:14;10.13;;;8.55;;
13891;SDS011;7016;48.172;8.058;2022-07-24T02:32:41;9.75;;;8.48;;
13891;SDS011;7016;48.172;8.058;2022-07-24T02:35:07;11.15;;;8.70;;
13891;SDS011;7016;48.172;8.058;2022-07-24T02:37:41;9.80;;;8.20;;
13891;SDS011;7016;48.172;8.058;2022-07-24T02:40:08;9.60;;;8.60;;
13891;SDS011;7016;48.172;8.058;2022-07-24T02:42:36;9.85;;;8.85;;
13891;SDS011;7016;48.172;8.058;2022-07-24T02:45:02;11.93;;;8.65;;
13891;SDS011;7016;48.172;8.058;2022-07-24T02:47:29;13.00;;;9.02;;
13891;SDS011;7016;48.172;8.058;2022-07-24T02:49:55;11.90;;;8.57;;
13891;SDS011;7016;48.172;8.058;2022-07-24T02:52:21;9.75;;;8.32;;
13891;SDS011;7016;48.172;8.058;2022-07-24T02:54:46;17.58;;;8.82;;
13891;SDS011;7016;48.172;8.058;2022-07-24T02:57:12;10.43;;;8.20;;
13891;SDS011;7016;48.172;8.058;2022-07-24T02:59:38;11.45;;;8.93;;
13891;SDS011;7016;48.172;8.058;2022-07-24T03:02:03;9.25;;;8.32;;
13891;SDS011;7016;48.172;8.058;2022-07-24T03:04:29;11.25;;;9.25;;
13891;SDS011;7016;48.172;8.058;2022-07-24T03:06:55;11.23;;;9.40;;
13891;SDS011;7016;48.172;8.058;2022-07-24T03:09:21;9.75;;;8.55;;
13891;SDS011;7016;48.172;8.058;2022-07-24T03:11:46;12.45;;;8.65;;
13891;SDS011;7016;48.172;8.058;2022-07-24T03:14:12;11.48;;;9.38;;
13891;SDS011;7016;48.172;8.058;2022-07-24T03:16:37;14.23;;;9.35;;
13891;SDS011;7016;48.172;8.058;2022-07-24T03:19:03;11.35;;;8.45;;
13891;SDS011;7016;48.172;8.058;2022-07-24T03:21:29;12.55;;;8.68;;
13891;SDS011;7016;48.172;8.058;2022-07-24T03:23:55;15.02;;;9.43;;
13891;SDS011;7016;48.172;8.058;2022-07-24T03:26:20;12.52;;;9.45;;
13891;SDS011;7016;48.172;8.058;2022-07-24T03:28:46;12.40;;;9.07;;
13891;SDS011;7016;48.172;8.058;2022-07-24T03:31:12;11.35;;;8.40;;
13891;SDS011;7016;48.172;8.058;2022-07-24T03:33:37;10.32;;;9.05;;
13891;SDS011;7016;48.172;8.058;2022-07-24T03:36:03;12.63;;;8.93;;
13891;SDS011;7016;48.172;8.058;2022-07-24T03:38:29;10.35;;;9.25;;
13891;SDS011;7016;48.172;8.058;2022-07-24T03:40:55;11.32;;;9.07;;
13891;SDS011;7016;48.172;8.058;2022-07-24T03:43:21;13.90;;;9.32;;
13891;SDS011;7016;48.172;8.058;2022-07-24T03:45:46;10.95;;;9.68;;
13891;SDS011;7016;48.172;8.058;2022-07-24T03:48:12;14.90;;;9.32;;
13891;SDS011;7016;48.172;8.058;2022-07-24T03:50:38;12.20;;;9.40;;
13891;SDS011;7016;48.172;8.058;2022-07-24T03:53:04;12.95;;;9.45;;
13891;SDS011;7016;48.172;8.058;2022-07-24T03:55:29;10.68;;;9.18;;
13891;SDS011;7016;48.172;8.058;2022-07-24T03:57:55;12.05;;;9.23;;
13891;SDS011;7016;48.172;8.058;2022-07-24T04:00:21;10.98;;;9.40;;
13891;SDS011;7016;48.172;8.058;2022-07-24T04:02:46;12.70;;;9.75;;
13891;SDS011;7016;48.172;8.058;2022-07-24T04:05:12;11.73;;;9.65;;
13891;SDS011;7016;48.172;8.058;2022-07-24T04:07:38;10.30;;;8.85;;
13891;SDS011;7016;48.172;8.058;2022-07-24T04:10:05;13.98;;;9.23;;
13891;SDS011;7016;48.172;8.058;2022-07-24T04:12:32;12.63;;;9.27;;
13891;SDS011;7016;48.172;8.058;2022-07-24T04:14:58;12.57;;;9.63;;
13891;SDS011;7016;48.172;8.058;2022-07-24T04:17:24;11.70;;;8.88;;
13891;SDS011;7016;48.172;8.058;2022-07-24T04:19:50;11.00;;;9.48;;
13891;SDS011;7016;48.172;8.058;2022-07-24T04:22:15;14.10;;;9.40;;
13891;SDS011;7016;48.172;8.058;2022-07-24T04:24:41;14.65;;;8.90;;
13891;SDS011;7016;48.172;8.058;2022-07-24T04:27:07;10.25;;;8.75;;
13891;SDS011;7016;48.172;8.058;2022-07-24T04:29:33;11.68;;;8.55;;
13891;SDS011;7016;48.172;8.058;2022-07-24T04:31:58;13.27;;;9.60;;
13891;SDS011;7016;48.172;8.058;2022-07-24T04:34:24;13.75;;;9.43;;
13891;SDS011;7016;48.172;8.058;2022-07-24T04:36:50;13.77;;;9.50;;
13891;SDS011;7016;48.172;8.058;2022-07-24T04:39:15;13.50;;;10.40;;
13891;SDS011;7016;48.172;8.058;2022-07-24T04:41:41;11.60;;;9.70;;
13891;SDS011;7016;48.172;8.058;2022-07-24T04:44:07;13.63;;;9.60;;
13891;SDS011;7016;48.172;8.058;2022-07-24T04:46:32;9.95;;;8.82;;
13891;SDS011;7016;48.172;8.058;2022-07-24T04:48:58;10.40;;;9.10;;
13891;SDS011;7016;48.172;8.058;2022-07-24T04:51:25;11.95;;;8.93;;
13891;SDS011;7016;48.172;8.058;2022-07-24T04:53:50;11.40;;;9.13;;
13891;SDS011;7016;48.172;8.058;2022-07-24T04:56:18;13.57;;;9.65;;
13891;SDS011;7016;48.172;8.058;2022-07-24T04:58:45;14.15;;;9.70;;
13891;SDS011;7016;48.172;8.058;2022-07-24T05:01:13;11.43;;;8.88;;
13891;SDS011;7016;48.172;8.058;2022-07-24T05:03:40;10.73;;;9.35;;
13891;SDS011;7016;48.172;8.058;2022-07-24T05:06:06;15.82;;;9.52;;
13891;SDS011;7016;48.172;8.058;2022-07-24T05:08:32;11.63;;;8.93;;
13891;SDS011;7016;48.172;8.058;2022-07-24T05:10:58;11.77;;;8.60;;
13891;SDS011;7016;48.172;8.058;2022-07-24T05:13:23;15.32;;;9.85;;
13891;SDS011;7016;48.172;8.058;2022-07-24T05:15:49;10.45;;;9.35;;
13891;SDS011;7016;48.172;8.058;2022-07-24T05:18:15;12.50;;;9.13;;
13891;SDS011;7016;48.172;8.058;2022-07-24T05:20:40;14.65;;;9.50;;
13891;SDS011;7016;48.172;8.058;2022-07-24T05:23:06;10.75;;;8.18;;
13891;SDS011;7016;48.172;8.058;2022-07-24T05:25:32;11.95;;;9.40;;
13891;SDS011;7016;48.172;8.058;2022-07-24T05:27:57;10.98;;;9.60;;
13891;SDS011;7016;48.172;8.058;2022-07-24T05:30:23;13.65;;;9.93;;
13891;SDS011;7016;48.172;8.058;2022-07-24T05:32:49;12.32;;;9.43;;
13891;SDS011;7016;48.172;8.058;2022-07-24T05:35:15;10.88;;;9.27;;
13891;SDS011;7016;48.172;8.058;2022-07-24T05:37:41;11.98;;;9.48;;
13891;SDS011;7016;48.172;8.058;2022-07-24T05:40:06;11.88;;;9.88;;
13891;SDS011;7016;48.172;8.058;2022-07-24T05:42:32;12.85;;;9.52;;
13891;SDS011;7016;48.172;8.058;2022-07-24T05:44:58;11.88;;;9.63;;
13891;SDS011;7016;48.172;8.058;2022-07-24T05:47:24;10.60;;;9.07;;
13891;SDS011;7016;48.172;8.058;2022-07-24T05:49:50;10.35;;;8.95;;
13891;SDS011;7016;48.172;8.058;2022-07-24T05:52:15;10.75;;;9.15;;
13891;SDS011;7016;48.172;8.058;2022-07-24T05:54:41;16.83;;;9.32;;
13891;SDS011;7016;48.172;8.058;2022-07-24T05:57:07;11.75;;;9.13;;
13891;SDS011;7016;48.172;8.058;2022-07-24T05:59:33;10.05;;;8.43;;
13891;SDS011;7016;48.172;8.058;2022-07-24T06:01:59;11.93;;;8.98;;
13891;SDS011;7016;48.172;8.058;2022-07-24T06:04:26;12.30;;;9.25;;
13891;SDS011;7016;48.172;8.058;2022-07-24T06:06:52;10.70;;;8.98;;
13891;SDS011;7016;48.172;8.058;2022-07-24T06:09:18;15.18;;;9.38;;
13891;SDS011;7016;48.172;8.058;2022-07-24T06:11:43;9.98;;;8.52;;
13891;SDS011;7016;48.172;8.058;2022-07-24T06:14:09;12.07;;;9.10;;
13891;SDS011;7016;48.172;8.058;2022-07-24T06:16:35;11.23;;;8.90;;
13891;SDS011;7016;48.172;8.058;2022-07-24T06:19:01;10.38;;;9.02;;
13891;SDS011;7016;48.172;8.058;2022-07-24T06:21:26;10.52;;;8.70;;
13891;SDS011;7016;48.172;8.058;2022-07-24T06:23:52;10.43;;;8.77;;
13891;SDS011;7016;48.172;8.058;2022-07-24T06:26:18;11.02;;;8.20;;
13891;SDS011;7016;48.172;8.058;2022-07-24T06:28:44;10.93;;;8.25;;
13891;SDS011;7016;48.172;8.058;2022-07-24T06:31:09;10.23;;;8.38;;
13891;SDS011;7016;48.172;8.058;2022-07-24T06:33:35;9.73;;;8.30;;
13891;SDS011;7016;48.172;8.058;2022-07-24T06:36:01;10.05;;;7.75;;
13891;SDS011;7016;48.172;8.058;2022-07-24T06:38:26;10.73;;;8.13;;
13891;SDS011;7016;48.172;8.058;2022-07-24T06:40:52;10.45;;;8.38;;
13891;SDS011;7016;48.172;8.058;2022-07-24T06:43:18;12.95;;;7.80;;
13891;SDS011;7016;48.172;8.058;2022-07-24T06:45:43;11.35;;;8.63;;
13891;SDS011;7016;48.172;8.058;2022-07-24T06:48:09;9.98;;;8.45;;
13891;SDS011;7016;48.172;8.058;2022-07-24T06:50:35;8.55;;;7.63;;
13891;SDS011;7016;48.172;8.058;2022-07-24T06:53:01;10.73;;;8.02;;
13891;SDS011;7016;48.172;8.058;2022-07-24T06:55:26;9.00;;;7.97;;
13891;SDS011;7016;48.172;8.058;2022-07-24T06:57:53;9.60;;;7.45;;
13891;SDS011;7016;48.172;8.058;2022-07-24T07:00:18;11.65;;;7.82;;
13891;SDS011;7016;48.172;8.058;2022-07-24T07:02:44;12.02;;;7.82;;
13891;SDS011;7016;48.172;8.058;2022-07-24T07:05:11;8.45;;;7.55;;
13891;SDS011;7016;48.172;8.058;2022-07-24T07:07:37;11.55;;;7.60;;
13891;SDS011;7016;48.172;8.058;2022-07-24T07:10:04;11.23;;;7.90;;
13891;SDS011;7016;48.172;8.058;2022-07-24T07:12:31;10.27;;;7.18;;
13891;SDS011;7016;48.172;8.058;2022-07-24T07:14:57;12.00;;;7.57;;
13891;SDS011;7016;48.172;8.058;2022-07-24T07:17:24;10.98;;;7.88;;
13891;SDS011;7016;48.172;8.058;2022-07-24T07:19:50;10.05;;;7.57;;
13891;SDS011;7016;48.172;8.058;2022-07-24T07:22:16;9.98;;;7.22;;
13891;SDS011;7016;48.172;8.058;2022-07-24T07:24:42;8.02;;;6.88;;
13891;SDS011;7016;48.172;8.058;2022-07-24T07:27:07;13.48;;;7.07;;
13891;SDS011;7016;48.172;8.058;2022-07-24T07:29:33;11.48;;;7.15;;
13891;SDS011;7016;48.172;8.058;2022-07-24T07:31:59;11.88;;;7.35;;
13891;SDS011;7016;48.172;8.058;2022-07-24T07:34:24;9.73;;;7.82;;
13891;SDS011;7016;48.172;8.058;2022-07-24T07:36:51;9.13;;;6.65;;
13891;SDS011;7016;48.172;8.058;2022-07-24T07:39:18;8.52;;;6.93;;
13891;SDS011;7016;48.172;8.058;2022-07-24T07:41:43;7.70;;;6.75;;
13891;SDS011;7016;48.172;8.058;2022-07-24T07:44:09;11.48;;;7.05;;
13891;SDS011;7016;48.172;8.058;2022-07-24T07:46:35;7.38;;;6.57;;
13891;SDS011;7016;48.172;8.058;2022-07-24T07:49:00;10.20;;;7.55;;
13891;SDS011;7016;48.172;8.058;2022-07-24T07:51:26;11.15;;;6.55;;
13891;SDS011;7016;48.172;8.058;2022-07-24T07:53:52;7.70;;;6.85;;
13891;SDS011;7016;48.172;8.058;2022-07-24T07:56:18;10.73;;;7.00;;
13891;SDS011;7016;48.172;8.058;2022-07-24T07:58:45;9.45;;;6.63;;
13891;SDS011;7016;48.172;8.058;2022-07-24T08:01:11;8.77;;;6.18;;
13891;SDS011;7016;48.172;8.058;2022-07-24T08:03:36;8.15;;;6.35;;
13891;SDS011;7016;48.172;8.058;2022-07-24T08:06:02;7.78;;;6.03;;
13891;SDS011;7016;48.172;8.058;2022-07-24T08:08:29;9.95;;;6.18;;
13891;SDS011;7016;48.172;8.058;2022-07-24T08:10:55;9.02;;;6.63;;
13891;SDS011;7016;48.172;8.058;2022-07-24T08:13:21;8.70;;;6.47;;
13891;SDS011;7016;48.172;8.058;2022-07-24T08:15:47;8.57;;;6.40;;
13891;SDS011;7016;48.172;8.058;2022-07-24T08:18:12;7.03;;;5.80;;
13891;SDS011;7016;48.172;8.058;2022-07-24T08:20:38;8.98;;;6.13;;
13891;SDS011;7016;48.172;8.058;2022-07-24T08:23:04;10.43;;;5.97;;
13891;SDS011;7016;48.172;8.058;2022-07-24T08:25:30;9.18;;;5.97;;
13891;SDS011;7016;48.172;8.058;2022-07-24T08:27:55;8.20;;;6.00;;
13891;SDS011;7016;48.172;8.058;2022-07-24T08:30:21;8.23;;;6.10;;
13891;SDS011;7016;48.172;8.058;2022-07-24T08:32:48;10.10;;;6.03;;
13891;SDS011;7016;48.172;8.058;2022-07-24T08:35:14;8.75;;;5.82;;
13891;SDS011;7016;48.172;8.058;2022-07-24T08:37:41;9.52;;;6.13;;
13891;SDS011;7016;48.172;8.058;2022-07-24T08:40:08;6.32;;;5.25;;
13891;SDS011;7016;48.172;8.058;2022-07-24T08:42:35;6.70;;;5.60;;
13891;SDS011;7016;48.172;8.058;2022-07-24T08:45:02;6.63;;;5.30;;
13891;SDS011;7016;48.172;8.058;2022-07-24T08:47:31;14.57;;;5.60;;
13891;SDS011;7016;48.172;8.058;2022-07-24T08:49:57;10.10;;;5.20;;
13891;SDS011;7016;48.172;8.058;2022-07-24T08:52:24;6.18;;;5.20;;
13891;SDS011;7016;48.172;8.058;2022-07-24T08:54:51;7.63;;;5.43;;
13891;SDS011;7016;48.172;8.058;2022-07-24T08:57:18;6.97;;;5.28;;
13891;SDS011;7016;48.172;8.058;2022-07-24T08:59:43;7.68;;;5.30;;
13891;SDS011;7016;48.172;8.058;2022-07-24T09:02:10;6.47;;;5.30;;
13891;SDS011;7016;48.172;8.058;2022-07-24T09:04:42;11.10;;;5.32;;
13891;SDS011;7016;48.172;8.058;2022-07-24T09:07:11;11.15;;;5.38;;
13891;SDS011;7016;48.172;8.058;2022-07-24T09:09:42;8.23;;;5.65;;
13891;SDS011;7016;48.172;8.058;2022-07-24T09:12:13;8.50;;;5.25;;
13891;SDS011;7016;48.172;8.058;2022-07-24T09:14:47;7.23;;;5.40;;
13891;SDS011;7016;48.172;8.058;2022-07-24T09:17:14;8.80;;;5.72;;
13891;SDS011;7016;48.172;8.058;2022-07-24T09:27:27;8.88;;;5.38;;
13891;SDS011;7016;48.172;8.058;2022-07-24T09:29:54;6.78;;;5.53;;
13891;SDS011;7016;48.172;8.058;2022-07-24T09:32:23;6.53;;;5.20;;
13891;SDS011;7016;48.172;8.058;2022-07-24T09:34:53;9.93;;;5.50;;
13891;SDS011;7016;48.172;8.058;2022-07-24T09:37:20;9.50;;;5.97;;
13891;SDS011;7016;48.172;8.058;2022-07-24T09:39:47;9.00;;;5.82;;
13891;SDS011;7016;48.172;8.058;2022-07-24T09:42:13;7.22;;;5.47;;
13891;SDS011;7016;48.172;8.058;2022-07-24T09:44:40;8.10;;;5.57;;
13891;SDS011;7016;48.172;8.058;2022-07-24T09:47:09;7.63;;;5.20;;
13891;SDS011;7016;48.172;8.058;2022-07-24T09:49:37;7.32;;;4.90;;
13891;SDS011;7016;48.172;8.058;2022-07-24T09:52:11;8.98;;;5.32;;
13891;SDS011;7016;48.172;8.058;2022-07-24T09:54:44;8.10;;;5.18;;
13891;SDS011;7016;48.172;8.058;2022-07-24T09:57:16;7.20;;;5.00;;
13891;SDS011;7016;48.172;8.058;2022-07-24T10:02:21;7.55;;;5.30;;
13891;SDS011;7016;48.172;8.058;2022-07-24T10:04:55;6.95;;;5.40;;
13891;SDS011;7016;48.172;8.058;2022-07-24T10:07:23;8.68;;;4.85;;
13891;SDS011;7016;48.172;8.058;2022-07-24T10:09:51;7.95;;;4.75;;
13891;SDS011;7016;48.172;8.058;2022-07-24T10:12:19;9.38;;;5.60;;
13891;SDS011;7016;48.172;8.058;2022-07-24T10:14:55;8.07;;;4.88;;
13891;SDS011;7016;48.172;8.058;2022-07-24T10:17:23;9.50;;;5.40;;
13891;SDS011;7016;48.172;8.058;2022-07-24T10:20:02;6.55;;;5.05;;
13891;SDS011;7016;48.172;8.058;2022-07-24T10:22:31;8.45;;;5.13;;
13891;SDS011;7016;48.172;8.058;2022-07-24T10:25:19;6.75;;;4.93;;
13891;SDS011;7016;48.172;8.058;2022-07-24T10:27:49;9.98;;;5.18;;
13891;SDS011;7016;48.172;8.058;2022-07-24T10:30:19;8.45;;;5.05;;
13891;SDS011;7016;48.172;8.058;2022-07-24T10:32:47;5.82;;;4.90;;
13891;SDS011;7016;48.172;8.058;2022-07-24T10:35:21;7.00;;;5.22;;
13891;SDS011;7016;48.172;8.058;2022-07-24T10:38:10;7.18;;;5.50;;
13891;SDS011;7016;48.172;8.058;2022-07-24T10:40:48;5.60;;;4.90;;
13891;SDS011;7016;48.172;8.058;2022-07-24T10:43:19;7.07;;;5.30;;
13891;SDS011;7016;48.172;8.058;2022-07-24T10:45:50;5.80;;;4.70;;
13891;SDS011;7016;48.172;8.058;2022-07-24T10:48:32;5.90;;;5.13;;
13891;SDS011;7016;48.172;8.058;2022-07-24T10:51:06;7.90;;;5.07;;
13891;SDS011;7016;48.172;8.058;2022-07-24T10:56:18;7.10;;;4.95;;
13891;SDS011;7016;48.172;8.058;2022-07-24T10:58:56;6.35;;;5.10;;
13891;SDS011;7016;48.172;8.058;2022-07-24T11:03:57;7.40;;;4.60;;
13891;SDS011;7016;48.172;8.058;2022-07-24T11:06:41;6.35;;;4.60;;
13891;SDS011;7016;48.172;8.058;2022-07-24T11:09:10;8.63;;;5.05;;
13891;SDS011;7016;48.172;8.058;2022-07-24T11:11:41;7.03;;;4.68;;
13891;SDS011;7016;48.172;8.058;2022-07-24T11:20:07;7.38;;;5.20;;
13891;SDS011;7016;48.172;8.058;2022-07-24T11:22:47;6.90;;;5.22;;
13891;SDS011;7016;48.172;8.058;2022-07-24T11:25:26;8.43;;;5.03;;
13891;SDS011;7016;48.172;8.058;2022-07-24T11:27:54;6.78;;;4.70;;
13891;SDS011;7016;48.172;8.058;2022-07-24T11:30:27;6.50;;;4.85;;
13891;SDS011;7016;48.172;8.058;2022-07-24T11:32:54;6.57;;;4.70;;
13891;SDS011;7016;48.172;8.058;2022-07-24T11:35:31;6.35;;;4.72;;
13891;SDS011;7016;48.172;8.058;2022-07-24T11:37:59;5.60;;;4.75;;
13891;SDS011;7016;48.172;8.058;2022-07-24T11:40:27;6.53;;;5.03;;
13891;SDS011;7016;48.172;8.058;2022-07-24T11:42:56;6.90;;;4.80;;
13891;SDS011;7016;48.172;8.058;2022-07-24T11:45:24;5.88;;;4.95;;
13891;SDS011;7016;48.172;8.058;2022-07-24T11:47:50;9.02;;;5.20;;
13891;SDS011;7016;48.172;8.058;2022-07-24T11:50:19;8.07;;;5.10;;
13891;SDS011;7016;48.172;8.058;2022-07-24T11:52:46;7.65;;;4.80;;
13891;SDS011;7016;48.172;8.058;2022-07-24T11:55:15;7.18;;;5.38;;
13891;SDS011;7016;48.172;8.058;2022-07-24T11:57:44;6.80;;;4.93;;
13891;SDS011;7016;48.172;8.058;2022-07-24T12:00:12;6.18;;;4.90;;
13891;SDS011;7016;48.172;8.058;2022-07-24T12:02:48;7.78;;;4.90;;
13891;SDS011;7016;48.172;8.058;2022-07-24T12:05:22;6.22;;;5.03;;
13891;SDS011;7016;48.172;8.058;2022-07-24T12:07:49;7.28;;;4.95;;
13891;SDS011;7016;48.172;8.058;2022-07-24T12:10:18;7.03;;;4.93;;
13891;SDS011;7016;48.172;8.058;2022-07-24T12:12:46;6.75;;;5.30;;
13891;SDS011;7016;48.172;8.058;2022-07-24T12:15:13;6.85;;;5.10;;
13891;SDS011;7016;48.172;8.058;2022-07-24T12:22:58;7.07;;;5.10;;
13891;SDS011;7016;48.172;8.058;2022-07-24T12:25:25;9.57;;;5.30;;
13891;SDS011;7016;48.172;8.058;2022-07-24T12:28:09;8.40;;;5.00;;
13891;SDS011;7016;48.172;8.058;2022-07-24T12:30:38;7.50;;;5.60;;
13891;SDS011;7016;48.172;8.058;2022-07-24T12:33:07;8.55;;;5.63;;
13891;SDS011;7016;48.172;8.058;2022-07-24T12:35:55;10.80;;;5.20;;
13891;SDS011;7016;48.172;8.058;2022-07-24T12:40:51;6.85;;;5.22;;
13891;SDS011;7016;48.172;8.058;2022-07-24T12:43:25;6.30;;;5.53;;
13891;SDS011;7016;48.172;8.058;2022-07-24T12:46:09;6.63;;;5.10;;
13891;SDS011;7016;48.172;8.058;2022-07-24T12:48:36;9.38;;;5.55;;
13891;SDS011;7016;48.172;8.058;2022-07-24T12:51:11;6.35;;;5.18;;
13891;SDS011;7016;48.172;8.058;2022-07-24T12:53:41;7.18;;;5.30;;
13891;SDS011;7016;48.172;8.058;2022-07-24T12:56:14;6.57;;;4.95;;
13891;SDS011;7016;48.172;8.058;2022-07-24T13:01:17;8.82;;;5.47;;
13891;SDS011;7016;48.172;8.058;2022-07-24T13:03:54;6.82;;;5.40;;
13891;SDS011;7016;48.172;8.058;2022-07-24T13:06:32;7.00;;;5.15;;
13891;SDS011;7016;48.172;8.058;2022-07-24T13:09:03;8.77;;;5.80;;
13891;SDS011;7016;48.172;8.058;2022-07-24T13:11:29;7.00;;;5.32;;
13891;SDS011;7016;48.172;8.058;2022-07-24T13:13:55;9.65;;;5.28;;
13891;SDS011;7016;48.172;8.058;2022-07-24T13:16:21;7.70;;;5.65;;
13891;SDS011;7016;48.172;8.058;2022-07-24T13:18:48;8.73;;;5.60;;
13891;SDS011;7016;48.172;8.058;2022-07-24T13:21:16;6.93;;;5.30;;
13891;SDS011;7016;48.172;8.058;2022-07-24T13:23:44;7.00;;;4.97;;
13891;SDS011;7016;48.172;8.058;2022-07-24T13:26:09;5.90;;;5.30;;
13891;SDS011;7016;48.172;8.058;2022-07-24T13:28:35;6.80;;;5.38;;
13891;SDS011;7016;48.172;8.058;2022-07-24T13:31:01;7.82;;;4.93;;
13891;SDS011;7016;48.172;8.058;2022-07-24T13:33:27;8.88;;;5.25;;
13891;SDS011;7016;48.172;8.058;2022-07-24T13:35:53;7.25;;;4.70;;
13891;SDS011;7016;48.172;8.058;2022-07-24T13:38:19;5.85;;;5.10;;
13891;SDS011;7016;48.172;8.058;2022-07-24T13:40:44;6.55;;;5.40;;
13891;SDS011;7016;48.172;8.058;2022-07-24T13:43:10;8.77;;;5.38;;
13891;SDS011;7016;48.172;8.058;2022-07-24T13:45:36;9.88;;;5.38;;
13891;SDS011;7016;48.172;8.058;2022-07-24T13:48:01;8.05;;;5.40;;
13891;SDS011;7016;48.172;8.058;2022-07-24T13:50:27;7.43;;;5.47;;
13891;SDS011;7016;48.172;8.058;2022-07-24T13:52:53;9.45;;;5.63;;
13891;SDS011;7016;48.172;8.058;2022-07-24T13:55:19;6.88;;;5.65;;
13891;SDS011;7016;48.172;8.058;2022-07-24T13:57:45;7.60;;;5.32;;
13891;SDS011;7016;48.172;8.058;2022-07-24T14:00:11;7.30;;;5.38;;
13891;SDS011;7016;48.172;8.058;2022-07-24T14:02:37;8.68;;;5.40;;
13891;SDS011;7016;48.172;8.058;2022-07-24T14:05:03;6.47;;;5.28;;
13891;SDS011;7016;48.172;8.058;2022-07-24T14:07:29;6.80;;;5.25;;
13891;SDS011;7016;48.172;8.058;2022-07-24T14:09:55;7.43;;;5.35;;
13891;SDS011;7016;48.172;8.058;2022-07-24T14:12:21;6.22;;;4.85;;
13891;SDS011;7016;48.172;8.058;2022-07-24T14:14:47;5.97;;;5.00;;
13891;SDS011;7016;48.172;8.058;2022-07-24T14:17:12;8.95;;;5.35;;
13891;SDS011;7016;48.172;8.058;2022-07-24T14:19:38;7.90;;;5.32;;
13891;SDS011;7016;48.172;8.058;2022-07-24T14:22:04;6.97;;;5.18;;
13891;SDS011;7016;48.172;8.058;2022-07-24T14:24:30;6.47;;;5.07;;
13891;SDS011;7016;48.172;8.058;2022-07-24T14:26:56;9.40;;;5.00;;
13891;SDS011;7016;48.172;8.058;2022-07-24T14:29:22;6.20;;;5.15;;
13891;SDS011;7016;48.172;8.058;2022-07-24T14:31:49;6.03;;;5.43;;
13891;SDS011;7016;48.172;8.058;2022-07-24T14:34:15;6.55;;;5.18;;
13891;SDS011;7016;48.172;8.058;2022-07-24T14:36:41;7.38;;;4.90;;
13891;SDS011;7016;48.172;8.058;2022-07-24T14:39:07;8.27;;;5.70;;
13891;SDS011;7016;48.172;8.058;2022-07-24T14:41:32;8.40;;;5.00;;
13891;SDS011;7016;48.172;8.058;2022-07-24T14:43:59;5.53;;;5.00;;
13891;SDS011;7016;48.172;8.058;2022-07-24T14:46:24;6.75;;;5.53;;
13891;SDS011;7016;48.172;8.058;2022-07-24T14:48:50;7.30;;;5.78;;
13891;SDS011;7016;48.172;8.058;2022-07-24T14:51:16;9.30;;;5.60;;
13891;SDS011;7016;48.172;8.058;2022-07-24T14:53:41;5.88;;;5.00;;
13891;SDS011;7016;48.172;8.058;2022-07-24T14:56:07;7.60;;;4.95;;
13891;SDS011;7016;48.172;8.058;2022-07-24T14:58:33;5.78;;;5.18;;
13891;SDS011;7016;48.172;8.058;2022-07-24T15:00:59;7.82;;;5.35;;
13891;SDS011;7016;48.172;8.058;2022-07-24T15:03:24;5.65;;;5.05;;
13891;SDS011;7016;48.172;8.058;2022-07-24T15:05:50;6.00;;;5.18;;
13891;SDS011;7016;48.172;8.058;2022-07-24T15:08:16;6.63;;;5.25;;
13891;SDS011;7016;48.172;8.058;2022-07-24T15:10:42;5.60;;;5.03;;
13891;SDS011;7016;48.172;8.058;2022-07-24T15:13:08;6.68;;;5.32;;
13891;SDS011;7016;48.172;8.058;2022-07-24T15:15:33;6.97;;;5.00;;
13891;SDS011;7016;48.172;8.058;2022-07-24T15:17:59;5.90;;;5.20;;
13891;SDS011;7016;48.172;8.058;2022-07-24T15:20:25;7.93;;;5.15;;
13891;SDS011;7016;48.172;8.058;2022-07-24T15:22:51;6.68;;;5.20;;
13891;SDS011;7016;48.172;8.058;2022-07-24T15:25:16;6.60;;;5.47;;
13891;SDS011;7016;48.172;8.058;2022-07-24T15:27:42;6.60;;;5.30;;